Rick Husband Amarillo International Airport
KAMA : now visible

Airfield :











YOU CAN JOIN US ON...

 
LOGIN :

Register | Disclaimer

   EN    FR    IT 

 









Legend :    VFR   Marginal VFR   IFR   Intensive IFR   Very Intensive IFR
Visi :
Ceiling :
>= 8 km
>= 3000ft
5 to 8 km
1000 to 3000 ft
1500m to 5 km
500 to 1000 ft
800 to 1500m
200 to 500 ft
< 800m
< 200 ft
Symbols :   Thunderstorms  Fog  Heavy snow  Heavy precipitations  Wind > 20 kt






- Airport Elevation : 3607 ft
- IATA code : AMA


KAMA - Rick Husband Amarillo International

CURRENT METAR :
  • 071453Z 21021G28KT 10SM CLR 28/17 A3001 RMK AO2 PK WND 22030/1431 SLP101 T02830167 51008

EXPIRED METARs :
  • 071353Z 22021G26KT 10SM CLR 26/16 A3000 RMK AO2 PK WND 23026/1352 SLP099 T02610161
  • 071253Z 21014KT 10SM CLR 23/15 A3000 RMK AO2 SLP098 T02280150
  • 071153Z 20013KT 10SM CLR 21/14 A2999 RMK AO2 SLP094 70004 T02110139 10250 20206 53003

TAF KAMA
Valid from the 07 at 12:00 until the 08 at 12:00 UTC


071120Z 0712/0812 20011KT P6SM SCT250
FM071400 22018G28KT P6SM SKC
FM080000 19015G23KT P6SM BKN110
PROB30 0800/0804 TSRA BKN100CB
KZAB FIR / North America



MET'MAP, your aeronautical weather chart ! - Copyright ORBIFLY December 2007 - Disclaimer

ORBIFLY MET'MAP TEAM :

Programming & Development : Alexandra Zaïnal
Concept & original design : Baudouin d'Aumeries
Assistance for programming : Marc-Olivier Méhu
Technical & hardware support : Manuel Goepfert

Contact : metmap@orbifly.com




SOURCES & CREDITS :

   NOAA       Earth
Advisory